sensor_id;sensor_type;location;lat;lon;timestamp;P1;durP1;ratioP1;P2;durP2;ratioP2
72209;SDS011;60113;48.762;12.302;2022-11-20T00:04:44;87.20;;;36.47;;
72209;SDS011;60113;48.762;12.302;2022-11-20T00:07:11;96.53;;;38.88;;
72209;SDS011;60113;48.762;12.302;2022-11-20T00:09:37;89.72;;;36.17;;
72209;SDS011;60113;48.762;12.302;2022-11-20T00:12:03;97.88;;;40.47;;
72209;SDS011;60113;48.762;12.302;2022-11-20T00:14:49;106.03;;;40.45;;
72209;SDS011;60113;48.762;12.302;2022-11-20T00:17:15;112.65;;;42.10;;
72209;SDS011;60113;48.762;12.302;2022-11-20T00:19:40;85.00;;;36.25;;
72209;SDS011;60113;48.762;12.302;2022-11-20T00:22:06;83.00;;;35.33;;
72209;SDS011;60113;48.762;12.302;2022-11-20T00:24:31;98.95;;;40.05;;
72209;SDS011;60113;48.762;12.302;2022-11-20T00:26:57;75.43;;;33.95;;
72209;SDS011;60113;48.762;12.302;2022-11-20T00:29:22;64.85;;;31.40;;
72209;SDS011;60113;48.762;12.302;2022-11-20T00:31:48;60.97;;;30.42;;
72209;SDS011;60113;48.762;12.302;2022-11-20T00:34:13;51.65;;;28.10;;
72209;SDS011;60113;48.762;12.302;2022-11-20T00:36:39;58.58;;;29.95;;
72209;SDS011;60113;48.762;12.302;2022-11-20T00:39:04;60.28;;;32.22;;
72209;SDS011;60113;48.762;12.302;2022-11-20T00:41:30;61.97;;;31.02;;
72209;SDS011;60113;48.762;12.302;2022-11-20T00:43:56;62.13;;;31.30;;
72209;SDS011;60113;48.762;12.302;2022-11-20T00:46:23;68.55;;;32.03;;
72209;SDS011;60113;48.762;12.302;2022-11-20T00:48:50;55.42;;;30.88;;
72209;SDS011;60113;48.762;12.302;2022-11-20T00:51:28;72.88;;;34.67;;
72209;SDS011;60113;48.762;12.302;2022-11-20T00:53:55;71.13;;;34.83;;
72209;SDS011;60113;48.762;12.302;2022-11-20T00:56:22;82.88;;;35.13;;
72209;SDS011;60113;48.762;12.302;2022-11-20T00:58:48;72.75;;;32.70;;
72209;SDS011;60113;48.762;12.302;2022-11-20T01:01:15;75.93;;;34.08;;
72209;SDS011;60113;48.762;12.302;2022-11-20T01:03:44;67.85;;;32.30;;
72209;SDS011;60113;48.762;12.302;2022-11-20T01:06:12;73.50;;;34.25;;
72209;SDS011;60113;48.762;12.302;2022-11-20T01:08:41;80.78;;;37.17;;
72209;SDS011;60113;48.762;12.302;2022-11-20T01:11:09;96.75;;;38.50;;
72209;SDS011;60113;48.762;12.302;2022-11-20T01:13:36;88.07;;;37.25;;
72209;SDS011;60113;48.762;12.302;2022-11-20T01:16:04;91.57;;;37.90;;
72209;SDS011;60113;48.762;12.302;2022-11-20T01:18:40;95.47;;;38.47;;
72209;SDS011;60113;48.762;12.302;2022-11-20T01:21:10;104.00;;;39.92;;
72209;SDS011;60113;48.762;12.302;2022-11-20T01:23:38;108.90;;;41.22;;
72209;SDS011;60113;48.762;12.302;2022-11-20T01:26:06;97.13;;;39.15;;
72209;SDS011;60113;48.762;12.302;2022-11-20T01:28:35;93.80;;;38.53;;
72209;SDS011;60113;48.762;12.302;2022-11-20T01:31:10;105.15;;;41.10;;
72209;SDS011;60113;48.762;12.302;2022-11-20T01:33:41;103.18;;;39.63;;
72209;SDS011;60113;48.762;12.302;2022-11-20T01:36:08;91.93;;;38.58;;
72209;SDS011;60113;48.762;12.302;2022-11-20T01:38:35;93.55;;;39.40;;
72209;SDS011;60113;48.762;12.302;2022-11-20T01:41:00;66.95;;;32.45;;
72209;SDS011;60113;48.762;12.302;2022-11-20T01:43:26;91.20;;;37.63;;
72209;SDS011;60113;48.762;12.302;2022-11-20T01:46:00;82.75;;;36.25;;
72209;SDS011;60113;48.762;12.302;2022-11-20T01:51:39;72.07;;;33.03;;
72209;SDS011;60113;48.762;12.302;2022-11-20T01:54:24;78.80;;;34.28;;
72209;SDS011;60113;48.762;12.302;2022-11-20T01:56:56;78.32;;;35.22;;
72209;SDS011;60113;48.762;12.302;2022-11-20T01:59:24;81.38;;;36.20;;
72209;SDS011;60113;48.762;12.302;2022-11-20T02:01:53;79.80;;;36.03;;
72209;SDS011;60113;48.762;12.302;2022-11-20T02:04:21;79.70;;;35.72;;
72209;SDS011;60113;48.762;12.302;2022-11-20T02:06:49;77.07;;;34.03;;
72209;SDS011;60113;48.762;12.302;2022-11-20T02:09:22;71.30;;;32.45;;
72209;SDS011;60113;48.762;12.302;2022-11-20T02:11:48;84.85;;;38.08;;
72209;SDS011;60113;48.762;12.302;2022-11-20T02:14:14;76.47;;;35.58;;
72209;SDS011;60113;48.762;12.302;2022-11-20T02:16:40;89.07;;;38.25;;
72209;SDS011;60113;48.762;12.302;2022-11-20T02:19:16;80.05;;;35.88;;
72209;SDS011;60113;48.762;12.302;2022-11-20T02:24:26;70.00;;;32.35;;
72209;SDS011;60113;48.762;12.302;2022-11-20T02:26:54;73.15;;;33.88;;
72209;SDS011;60113;48.762;12.302;2022-11-20T02:35:06;75.60;;;33.50;;
72209;SDS011;60113;48.762;12.302;2022-11-20T02:37:35;90.65;;;35.70;;
72209;SDS011;60113;48.762;12.302;2022-11-20T02:40:08;77.03;;;34.60;;
72209;SDS011;60113;48.762;12.302;2022-11-20T02:42:34;75.95;;;34.28;;
72209;SDS011;60113;48.762;12.302;2022-11-20T02:45:03;70.60;;;31.88;;
72209;SDS011;60113;48.762;12.302;2022-11-20T02:47:32;68.78;;;33.10;;
72209;SDS011;60113;48.762;12.302;2022-11-20T02:49:57;73.00;;;33.42;;
72209;SDS011;60113;48.762;12.302;2022-11-20T02:52:23;85.50;;;34.85;;
72209;SDS011;60113;48.762;12.302;2022-11-20T02:54:50;79.57;;;33.92;;
72209;SDS011;60113;48.762;12.302;2022-11-20T02:57:17;77.70;;;33.88;;
72209;SDS011;60113;48.762;12.302;2022-11-20T02:59:55;77.72;;;33.60;;
72209;SDS011;60113;48.762;12.302;2022-11-20T03:02:21;74.47;;;32.88;;
72209;SDS011;60113;48.762;12.302;2022-11-20T03:04:47;83.95;;;34.42;;
72209;SDS011;60113;48.762;12.302;2022-11-20T03:07:12;73.50;;;33.50;;
72209;SDS011;60113;48.762;12.302;2022-11-20T03:09:38;85.47;;;35.63;;
72209;SDS011;60113;48.762;12.302;2022-11-20T03:12:10;76.03;;;33.85;;
72209;SDS011;60113;48.762;12.302;2022-11-20T03:14:35;78.35;;;33.50;;
72209;SDS011;60113;48.762;12.302;2022-11-20T03:17:01;75.53;;;32.85;;
72209;SDS011;60113;48.762;12.302;2022-11-20T03:19:27;78.32;;;33.63;;
72209;SDS011;60113;48.762;12.302;2022-11-20T03:21:53;66.55;;;31.13;;
72209;SDS011;60113;48.762;12.302;2022-11-20T03:24:34;70.90;;;33.17;;
72209;SDS011;60113;48.762;12.302;2022-11-20T03:26:59;72.15;;;32.90;;
72209;SDS011;60113;48.762;12.302;2022-11-20T03:29:25;70.38;;;32.10;;
72209;SDS011;60113;48.762;12.302;2022-11-20T03:31:52;81.97;;;34.15;;
72209;SDS011;60113;48.762;12.302;2022-11-20T03:34:19;57.85;;;27.35;;
72209;SDS011;60113;48.762;12.302;2022-11-20T03:36:45;66.30;;;29.40;;
72209;SDS011;60113;48.762;12.302;2022-11-20T03:39:11;72.30;;;31.08;;
72209;SDS011;60113;48.762;12.302;2022-11-20T03:41:37;70.38;;;31.98;;
72209;SDS011;60113;48.762;12.302;2022-11-20T03:44:06;72.90;;;30.33;;
72209;SDS011;60113;48.762;12.302;2022-11-20T03:46:35;72.28;;;30.90;;
72209;SDS011;60113;48.762;12.302;2022-11-20T03:49:01;71.05;;;30.60;;
72209;SDS011;60113;48.762;12.302;2022-11-20T03:51:34;79.75;;;32.05;;
72209;SDS011;60113;48.762;12.302;2022-11-20T03:54:03;73.80;;;31.25;;
72209;SDS011;60113;48.762;12.302;2022-11-20T03:56:32;72.30;;;30.25;;
72209;SDS011;60113;48.762;12.302;2022-11-20T03:58:59;67.25;;;29.73;;
72209;SDS011;60113;48.762;12.302;2022-11-20T04:01:31;65.65;;;29.27;;
72209;SDS011;60113;48.762;12.302;2022-11-20T04:04:01;67.53;;;29.98;;
72209;SDS011;60113;48.762;12.302;2022-11-20T04:06:34;76.85;;;31.42;;
72209;SDS011;60113;48.762;12.302;2022-11-20T04:09:04;84.75;;;32.60;;
72209;SDS011;60113;48.762;12.302;2022-11-20T04:11:31;90.18;;;31.77;;
72209;SDS011;60113;48.762;12.302;2022-11-20T04:13:59;90.13;;;32.63;;
72209;SDS011;60113;48.762;12.302;2022-11-20T04:16:28;90.90;;;32.75;;
72209;SDS011;60113;48.762;12.302;2022-11-20T04:18:56;87.95;;;32.67;;
72209;SDS011;60113;48.762;12.302;2022-11-20T04:21:23;81.45;;;31.60;;
72209;SDS011;60113;48.762;12.302;2022-11-20T04:23:49;87.60;;;32.28;;
72209;SDS011;60113;48.762;12.302;2022-11-20T04:26:16;92.10;;;32.50;;
72209;SDS011;60113;48.762;12.302;2022-11-20T04:28:41;92.53;;;32.88;;
72209;SDS011;60113;48.762;12.302;2022-11-20T04:31:08;99.20;;;33.22;;
72209;SDS011;60113;48.762;12.302;2022-11-20T04:33:39;90.47;;;31.63;;
72209;SDS011;60113;48.762;12.302;2022-11-20T04:36:12;77.32;;;30.80;;
72209;SDS011;60113;48.762;12.302;2022-11-20T04:38:38;76.07;;;30.02;;
72209;SDS011;60113;48.762;12.302;2022-11-20T04:41:05;57.45;;;24.30;;
72209;SDS011;60113;48.762;12.302;2022-11-20T04:43:32;64.65;;;28.38;;
72209;SDS011;60113;48.762;12.302;2022-11-20T04:45:59;49.50;;;23.50;;
72209;SDS011;60113;48.762;12.302;2022-11-20T04:48:26;39.85;;;21.33;;
72209;SDS011;60113;48.762;12.302;2022-11-20T04:50:56;49.67;;;24.95;;
72209;SDS011;60113;48.762;12.302;2022-11-20T04:53:22;48.13;;;25.75;;
72209;SDS011;60113;48.762;12.302;2022-11-20T04:55:48;55.65;;;25.88;;
72209;SDS011;60113;48.762;12.302;2022-11-20T04:58:14;59.97;;;28.08;;
72209;SDS011;60113;48.762;12.302;2022-11-20T05:00:40;50.47;;;26.30;;
72209;SDS011;60113;48.762;12.302;2022-11-20T05:03:06;69.63;;;30.70;;
72209;SDS011;60113;48.762;12.302;2022-11-20T05:05:33;53.78;;;26.13;;
72209;SDS011;60113;48.762;12.302;2022-11-20T05:10:53;66.00;;;29.45;;
72209;SDS011;60113;48.762;12.302;2022-11-20T05:13:19;70.70;;;31.17;;
72209;SDS011;60113;48.762;12.302;2022-11-20T05:15:44;100.28;;;44.50;;
72209;SDS011;60113;48.762;12.302;2022-11-20T05:18:10;79.43;;;32.45;;
72209;SDS011;60113;48.762;12.302;2022-11-20T05:20:35;70.30;;;31.52;;
72209;SDS011;60113;48.762;12.302;2022-11-20T05:23:19;89.30;;;35.10;;
72209;SDS011;60113;48.762;12.302;2022-11-20T05:25:45;87.25;;;33.60;;
72209;SDS011;60113;48.762;12.302;2022-11-20T05:28:11;71.55;;;29.85;;
72209;SDS011;60113;48.762;12.302;2022-11-20T05:30:37;78.63;;;30.88;;
72209;SDS011;60113;48.762;12.302;2022-11-20T05:33:02;79.07;;;30.73;;
72209;SDS011;60113;48.762;12.302;2022-11-20T05:35:28;78.35;;;30.63;;
72209;SDS011;60113;48.762;12.302;2022-11-20T05:37:53;73.10;;;29.83;;
72209;SDS011;60113;48.762;12.302;2022-11-20T05:40:19;77.25;;;31.08;;
72209;SDS011;60113;48.762;12.302;2022-11-20T05:42:44;77.18;;;32.15;;
72209;SDS011;60113;48.762;12.302;2022-11-20T05:45:10;99.55;;;36.22;;
72209;SDS011;60113;48.762;12.302;2022-11-20T05:47:47;87.40;;;33.65;;
72209;SDS011;60113;48.762;12.302;2022-11-20T05:50:13;91.00;;;32.78;;
72209;SDS011;60113;48.762;12.302;2022-11-20T05:52:39;80.85;;;32.72;;
72209;SDS011;60113;48.762;12.302;2022-11-20T05:55:05;69.82;;;27.52;;
72209;SDS011;60113;48.762;12.302;2022-11-20T05:57:31;87.72;;;31.83;;
72209;SDS011;60113;48.762;12.302;2022-11-20T05:59:57;86.13;;;29.27;;
72209;SDS011;60113;48.762;12.302;2022-11-20T06:02:23;85.32;;;32.30;;
72209;SDS011;60113;48.762;12.302;2022-11-20T06:04:48;96.50;;;36.15;;
72209;SDS011;60113;48.762;12.302;2022-11-20T06:09:59;101.40;;;35.33;;
72209;SDS011;60113;48.762;12.302;2022-11-20T06:12:25;88.40;;;32.88;;
72209;SDS011;60113;48.762;12.302;2022-11-20T06:14:50;94.43;;;33.85;;
72209;SDS011;60113;48.762;12.302;2022-11-20T06:17:16;109.80;;;36.22;;
72209;SDS011;60113;48.762;12.302;2022-11-20T06:19:41;106.60;;;36.60;;
72209;SDS011;60113;48.762;12.302;2022-11-20T06:22:07;102.55;;;34.75;;
72209;SDS011;60113;48.762;12.302;2022-11-20T06:24:33;99.68;;;35.53;;
72209;SDS011;60113;48.762;12.302;2022-11-20T06:26:59;99.88;;;34.88;;
72209;SDS011;60113;48.762;12.302;2022-11-20T06:29:25;112.05;;;37.05;;
72209;SDS011;60113;48.762;12.302;2022-11-20T06:31:50;113.10;;;37.15;;
72209;SDS011;60113;48.762;12.302;2022-11-20T06:34:16;107.18;;;38.53;;
72209;SDS011;60113;48.762;12.302;2022-11-20T06:36:41;107.90;;;37.72;;
72209;SDS011;60113;48.762;12.302;2022-11-20T06:39:07;84.13;;;29.33;;
72209;SDS011;60113;48.762;12.302;2022-11-20T06:41:32;93.90;;;32.67;;
72209;SDS011;60113;48.762;12.302;2022-11-20T06:43:58;65.72;;;26.73;;
72209;SDS011;60113;48.762;12.302;2022-11-20T06:46:24;58.10;;;25.75;;
72209;SDS011;60113;48.762;12.302;2022-11-20T06:48:50;78.85;;;32.92;;
72209;SDS011;60113;48.762;12.302;2022-11-20T06:51:16;58.30;;;24.27;;
72209;SDS011;60113;48.762;12.302;2022-11-20T06:53:42;59.42;;;28.38;;
72209;SDS011;60113;48.762;12.302;2022-11-20T06:56:07;63.92;;;30.38;;
72209;SDS011;60113;48.762;12.302;2022-11-20T06:58:33;62.70;;;31.35;;
72209;SDS011;60113;48.762;12.302;2022-11-20T07:01:00;48.10;;;24.80;;
72209;SDS011;60113;48.762;12.302;2022-11-20T07:03:30;61.70;;;29.25;;
72209;SDS011;60113;48.762;12.302;2022-11-20T07:05:56;45.45;;;25.48;;
72209;SDS011;60113;48.762;12.302;2022-11-20T07:08:26;44.58;;;25.90;;
72209;SDS011;60113;48.762;12.302;2022-11-20T07:11:00;39.75;;;24.08;;
72209;SDS011;60113;48.762;12.302;2022-11-20T07:13:28;29.80;;;18.92;;
72209;SDS011;60113;48.762;12.302;2022-11-20T07:15:54;27.75;;;18.75;;
72209;SDS011;60113;48.762;12.302;2022-11-20T07:18:33;24.17;;;15.27;;
72209;SDS011;60113;48.762;12.302;2022-11-20T07:21:03;23.20;;;15.88;;
72209;SDS011;60113;48.762;12.302;2022-11-20T07:23:32;19.17;;;13.25;;
72209;SDS011;60113;48.762;12.302;2022-11-20T07:26:02;22.70;;;13.50;;
72209;SDS011;60113;48.762;12.302;2022-11-20T07:28:28;25.48;;;16.73;;
72209;SDS011;60113;48.762;12.302;2022-11-20T07:30:54;26.20;;;16.85;;
72209;SDS011;60113;48.762;12.302;2022-11-20T07:33:19;35.03;;;18.08;;
72209;SDS011;60113;48.762;12.302;2022-11-20T07:35:45;24.65;;;16.88;;
72209;SDS011;60113;48.762;12.302;2022-11-20T07:38:11;20.20;;;14.90;;
72209;SDS011;60113;48.762;12.302;2022-11-20T07:40:38;18.83;;;13.23;;
72209;SDS011;60113;48.762;12.302;2022-11-20T07:43:03;15.30;;;10.82;;
72209;SDS011;60113;48.762;12.302;2022-11-20T07:45:29;14.52;;;10.77;;
72209;SDS011;60113;48.762;12.302;2022-11-20T07:47:54;14.45;;;9.93;;
72209;SDS011;60113;48.762;12.302;2022-11-20T07:50:20;13.38;;;9.60;;
72209;SDS011;60113;48.762;12.302;2022-11-20T07:52:46;30.02;;;20.48;;
72209;SDS011;60113;48.762;12.302;2022-11-20T07:55:12;16.80;;;11.93;;
72209;SDS011;60113;48.762;12.302;2022-11-20T07:57:43;11.80;;;7.50;;
72209;SDS011;60113;48.762;12.302;2022-11-20T08:00:10;12.13;;;6.88;;
72209;SDS011;60113;48.762;12.302;2022-11-20T08:02:37;11.57;;;7.88;;
72209;SDS011;60113;48.762;12.302;2022-11-20T08:05:04;14.00;;;7.93;;
72209;SDS011;60113;48.762;12.302;2022-11-20T08:07:35;9.35;;;6.57;;
72209;SDS011;60113;48.762;12.302;2022-11-20T08:10:03;9.35;;;6.38;;
72209;SDS011;60113;48.762;12.302;2022-11-20T08:12:29;10.45;;;6.43;;
72209;SDS011;60113;48.762;12.302;2022-11-20T08:15:13;7.88;;;5.80;;
72209;SDS011;60113;48.762;12.302;2022-11-20T08:17:39;8.05;;;5.68;;
72209;SDS011;60113;48.762;12.302;2022-11-20T08:20:05;8.85;;;7.03;;
72209;SDS011;60113;48.762;12.302;2022-11-20T08:22:32;11.55;;;7.30;;
72209;SDS011;60113;48.762;12.302;2022-11-20T08:24:58;10.55;;;6.60;;
72209;SDS011;60113;48.762;12.302;2022-11-20T08:27:24;6.63;;;5.68;;
72209;SDS011;60113;48.762;12.302;2022-11-20T08:29:49;7.55;;;5.15;;
72209;SDS011;60113;48.762;12.302;2022-11-20T08:32:15;7.90;;;5.38;;
72209;SDS011;60113;48.762;12.302;2022-11-20T08:34:40;7.80;;;5.53;;
72209;SDS011;60113;48.762;12.302;2022-11-20T08:37:06;7.50;;;5.32;;
72209;SDS011;60113;48.762;12.302;2022-11-20T08:39:32;8.07;;;5.85;;
72209;SDS011;60113;48.762;12.302;2022-11-20T08:41:57;10.15;;;6.47;;
72209;SDS011;60113;48.762;12.302;2022-11-20T08:44:23;7.63;;;5.13;;
72209;SDS011;60113;48.762;12.302;2022-11-20T08:46:48;9.00;;;5.10;;
72209;SDS011;60113;48.762;12.302;2022-11-20T08:49:14;5.65;;;4.28;;
72209;SDS011;60113;48.762;12.302;2022-11-20T08:51:40;7.25;;;5.07;;
72209;SDS011;60113;48.762;12.302;2022-11-20T08:54:14;6.15;;;4.40;;
72209;SDS011;60113;48.762;12.302;2022-11-20T08:56:41;6.57;;;5.15;;
72209;SDS011;60113;48.762;12.302;2022-11-20T08:59:06;5.45;;;3.92;;
72209;SDS011;60113;48.762;12.302;2022-11-20T09:01:32;6.22;;;4.72;;
72209;SDS011;60113;48.762;12.302;2022-11-20T09:03:57;7.95;;;5.95;;
72209;SDS011;60113;48.762;12.302;2022-11-20T09:06:24;6.97;;;4.55;;
72209;SDS011;60113;48.762;12.302;2022-11-20T09:08:54;7.35;;;4.70;;
72209;SDS011;60113;48.762;12.302;2022-11-20T09:11:21;6.60;;;4.43;;
72209;SDS011;60113;48.762;12.302;2022-11-20T09:13:46;5.40;;;4.35;;
72209;SDS011;60113;48.762;12.302;2022-11-20T09:16:12;6.72;;;5.25;;
72209;SDS011;60113;48.762;12.302;2022-11-20T09:18:37;7.55;;;5.03;;
72209;SDS011;60113;48.762;12.302;2022-11-20T09:21:11;6.05;;;4.57;;
72209;SDS011;60113;48.762;12.302;2022-11-20T09:23:38;5.50;;;4.10;;
72209;SDS011;60113;48.762;12.302;2022-11-20T09:26:05;8.07;;;4.75;;
72209;SDS011;60113;48.762;12.302;2022-11-20T09:28:40;5.85;;;4.30;;
72209;SDS011;60113;48.762;12.302;2022-11-20T09:31:07;5.93;;;4.35;;
72209;SDS011;60113;48.762;12.302;2022-11-20T09:33:34;5.97;;;4.32;;
72209;SDS011;60113;48.762;12.302;2022-11-20T09:36:01;6.43;;;3.70;;
72209;SDS011;60113;48.762;12.302;2022-11-20T09:38:26;6.97;;;3.78;;
72209;SDS011;60113;48.762;12.302;2022-11-20T09:46:33;5.65;;;3.88;;
72209;SDS011;60113;48.762;12.302;2022-11-20T09:54:42;6.20;;;4.32;;
72209;SDS011;60113;48.762;12.302;2022-11-20T09:57:11;6.30;;;4.30;;
72209;SDS011;60113;48.762;12.302;2022-11-20T10:00:05;6.53;;;3.83;;
72209;SDS011;60113;48.762;12.302;2022-11-20T10:02:41;3.47;;;2.70;;
72209;SDS011;60113;48.762;12.302;2022-11-20T10:08:13;6.95;;;2.95;;
72209;SDS011;60113;48.762;12.302;2022-11-20T10:11:12;4.18;;;3.47;;
72209;SDS011;60113;48.762;12.302;2022-11-20T10:13:53;6.28;;;3.85;;
72209;SDS011;60113;48.762;12.302;2022-11-20T10:26:11;5.70;;;2.60;;
72209;SDS011;60113;48.762;12.302;2022-11-20T10:29:01;5.28;;;2.30;;
72209;SDS011;60113;48.762;12.302;2022-11-20T10:32:04;4.03;;;2.78;;
72209;SDS011;60113;48.762;12.302;2022-11-20T10:37:27;4.70;;;3.13;;
72209;SDS011;60113;48.762;12.302;2022-11-20T10:39:56;5.97;;;3.00;;
72209;SDS011;60113;48.762;12.302;2022-11-20T10:42:31;6.32;;;2.97;;
72209;SDS011;60113;48.762;12.302;2022-11-20T10:45:31;2.83;;;2.22;;
72209;SDS011;60113;48.762;12.302;2022-11-20T10:48:16;5.20;;;2.83;;
72209;SDS011;60113;48.762;12.302;2022-11-20T10:51:03;5.47;;;3.05;;
72209;SDS011;60113;48.762;12.302;2022-11-20T10:56:48;3.30;;;2.40;;
72209;SDS011;60113;48.762;12.302;2022-11-20T10:59:32;5.93;;;2.90;;
72209;SDS011;60113;48.762;12.302;2022-11-20T11:04:49;5.15;;;2.67;;
72209;SDS011;60113;48.762;12.302;2022-11-20T11:09:50;6.03;;;2.72;;
72209;SDS011;60113;48.762;12.302;2022-11-20T11:12:19;3.30;;;2.58;;
72209;SDS011;60113;48.762;12.302;2022-11-20T11:14:51;4.63;;;2.63;;
72209;SDS011;60113;48.762;12.302;2022-11-20T11:17:20;3.53;;;2.40;;
72209;SDS011;60113;48.762;12.302;2022-11-20T11:25:22;6.28;;;3.13;;
72209;SDS011;60113;48.762;12.302;2022-11-20T11:30:46;3.83;;;2.30;;
72209;SDS011;60113;48.762;12.302;2022-11-20T11:35:59;4.85;;;2.50;;
72209;SDS011;60113;48.762;12.302;2022-11-20T11:38:33;3.35;;;2.00;;
72209;SDS011;60113;48.762;12.302;2022-11-20T11:41:05;3.78;;;2.50;;
72209;SDS011;60113;48.762;12.302;2022-11-20T11:43:33;3.97;;;2.65;;
72209;SDS011;60113;48.762;12.302;2022-11-20T11:51:39;2.75;;;2.08;;
72209;SDS011;60113;48.762;12.302;2022-11-20T11:54:17;2.63;;;1.80;;
72209;SDS011;60113;48.762;12.302;2022-11-20T11:56:49;3.45;;;2.08;;
72209;SDS011;60113;48.762;12.302;2022-11-20T11:59:26;3.67;;;2.40;;
72209;SDS011;60113;48.762;12.302;2022-11-20T12:02:01;2.78;;;1.90;;
72209;SDS011;60113;48.762;12.302;2022-11-20T12:04:44;2.60;;;2.00;;
72209;SDS011;60113;48.762;12.302;2022-11-20T12:07:21;2.97;;;2.35;;
72209;SDS011;60113;48.762;12.302;2022-11-20T12:09:57;3.47;;;2.05;;
72209;SDS011;60113;48.762;12.302;2022-11-20T12:12:27;3.72;;;2.08;;
72209;SDS011;60113;48.762;12.302;2022-11-20T12:17:23;3.08;;;2.03;;
72209;SDS011;60113;48.762;12.302;2022-11-20T12:19:49;2.80;;;1.90;;
72209;SDS011;60113;48.762;12.302;2022-11-20T12:25:14;2.97;;;2.00;;
72209;SDS011;60113;48.762;12.302;2022-11-20T12:31:00;4.50;;;2.42;;
72209;SDS011;60113;48.762;12.302;2022-11-20T12:33:44;5.72;;;2.42;;
72209;SDS011;60113;48.762;12.302;2022-11-20T12:36:24;4.45;;;2.15;;
72209;SDS011;60113;48.762;12.302;2022-11-20T12:53:44;3.80;;;2.08;;
72209;SDS011;60113;48.762;12.302;2022-11-20T13:02:30;2.95;;;1.77;;
72209;SDS011;60113;48.762;12.302;2022-11-20T13:07:44;6.97;;;1.98;;
72209;SDS011;60113;48.762;12.302;2022-11-20T13:10:14;3.72;;;1.63;;
72209;SDS011;60113;48.762;12.302;2022-11-20T13:13:19;4.20;;;1.90;;
72209;SDS011;60113;48.762;12.302;2022-11-20T13:15:49;2.45;;;1.60;;
72209;SDS011;60113;48.762;12.302;2022-11-20T13:18:21;3.33;;;1.58;;
72209;SDS011;60113;48.762;12.302;2022-11-20T13:20:46;3.58;;;1.70;;
72209;SDS011;60113;48.762;12.302;2022-11-20T13:23:25;3.17;;;2.13;;
72209;SDS011;60113;48.762;12.302;2022-11-20T13:26:02;2.40;;;1.90;;
72209;SDS011;60113;48.762;12.302;2022-11-20T13:28:30;8.60;;;3.92;;
72209;SDS011;60113;48.762;12.302;2022-11-20T13:30:56;4.28;;;2.28;;
72209;SDS011;60113;48.762;12.302;2022-11-20T13:35:56;2.72;;;1.92;;
72209;SDS011;60113;48.762;12.302;2022-11-20T13:38:48;2.40;;;1.75;;
72209;SDS011;60113;48.762;12.302;2022-11-20T13:44:10;3.33;;;2.30;;
72209;SDS011;60113;48.762;12.302;2022-11-20T13:46:44;6.55;;;3.70;;
72209;SDS011;60113;48.762;12.302;2022-11-20T13:49:18;3.58;;;2.60;;
72209;SDS011;60113;48.762;12.302;2022-11-20T13:51:56;5.03;;;3.50;;
72209;SDS011;60113;48.762;12.302;2022-11-20T13:59:56;7.68;;;2.95;;
72209;SDS011;60113;48.762;12.302;2022-11-20T14:02:25;8.07;;;4.85;;
72209;SDS011;60113;48.762;12.302;2022-11-20T14:04:53;6.72;;;4.35;;
72209;SDS011;60113;48.762;12.302;2022-11-20T14:07:23;4.85;;;3.75;;
72209;SDS011;60113;48.762;12.302;2022-11-20T14:09:56;4.75;;;2.97;;
72209;SDS011;60113;48.762;12.302;2022-11-20T14:12:27;3.22;;;2.03;;
72209;SDS011;60113;48.762;12.302;2022-11-20T14:14:55;4.10;;;2.42;;
72209;SDS011;60113;48.762;12.302;2022-11-20T14:17:23;2.83;;;1.80;;
72209;SDS011;60113;48.762;12.302;2022-11-20T14:19:51;5.35;;;2.30;;
72209;SDS011;60113;48.762;12.302;2022-11-20T14:22:25;5.10;;;2.25;;
72209;SDS011;60113;48.762;12.302;2022-11-20T14:25:06;3.45;;;2.00;;
72209;SDS011;60113;48.762;12.302;2022-11-20T14:27:40;4.53;;;2.75;;
72209;SDS011;60113;48.762;12.302;2022-11-20T14:30:17;4.25;;;2.80;;
72209;SDS011;60113;48.762;12.302;2022-11-20T14:32:45;3.17;;;1.88;;
72209;SDS011;60113;48.762;12.302;2022-11-20T14:35:23;5.60;;;2.08;;
72209;SDS011;60113;48.762;12.302;2022-11-20T14:37:51;3.25;;;2.00;;
72209;SDS011;60113;48.762;12.302;2022-11-20T14:40:22;2.20;;;1.70;;
72209;SDS011;60113;48.762;12.302;2022-11-20T14:42:50;5.22;;;1.90;;
72209;SDS011;60113;48.762;12.302;2022-11-20T14:45:16;3.58;;;2.05;;
72209;SDS011;60113;48.762;12.302;2022-11-20T14:47:42;4.32;;;2.47;;
72209;SDS011;60113;48.762;12.302;2022-11-20T14:50:41;2.72;;;1.80;;
72209;SDS011;60113;48.762;12.302;2022-11-20T14:53:00;2.00;;;1.50;;
72209;SDS011;60113;48.762;12.302;2022-11-20T14:58:22;6.68;;;1.50;;
72209;SDS011;60113;48.762;12.302;2022-11-20T15:00:56;4.18;;;1.90;;
72209;SDS011;60113;48.762;12.302;2022-11-20T15:03:39;2.35;;;1.40;;
72209;SDS011;60113;48.762;12.302;2022-11-20T15:06:12;5.05;;;2.03;;
72209;SDS011;60113;48.762;12.302;2022-11-20T15:08:38;1.83;;;1.63;;
72209;SDS011;60113;48.762;12.302;2022-11-20T15:11:14;2.15;;;1.58;;
72209;SDS011;60113;48.762;12.302;2022-11-20T15:13:43;2.22;;;1.63;;
72209;SDS011;60113;48.762;12.302;2022-11-20T15:16:18;3.47;;;1.85;;
72209;SDS011;60113;48.762;12.302;2022-11-20T15:18:46;3.08;;;1.85;;
72209;SDS011;60113;48.762;12.302;2022-11-20T15:21:16;3.83;;;2.10;;
72209;SDS011;60113;48.762;12.302;2022-11-20T15:23:44;2.60;;;1.90;;
72209;SDS011;60113;48.762;12.302;2022-11-20T15:26:11;3.40;;;2.00;;
72209;SDS011;60113;48.762;12.302;2022-11-20T15:28:40;6.20;;;1.80;;
72209;SDS011;60113;48.762;12.302;2022-11-20T15:31:15;2.60;;;1.75;;
72209;SDS011;60113;48.762;12.302;2022-11-20T15:33:42;2.58;;;1.75;;
72209;SDS011;60113;48.762;12.302;2022-11-20T15:36:09;2.75;;;1.77;;
72209;SDS011;60113;48.762;12.302;2022-11-20T15:38:35;2.67;;;2.10;;
72209;SDS011;60113;48.762;12.302;2022-11-20T15:41:01;2.63;;;1.80;;
72209;SDS011;60113;48.762;12.302;2022-11-20T15:43:27;2.88;;;2.03;;
72209;SDS011;60113;48.762;12.302;2022-11-20T15:45:55;3.05;;;2.05;;
72209;SDS011;60113;48.762;12.302;2022-11-20T15:48:22;2.88;;;2.15;;
72209;SDS011;60113;48.762;12.302;2022-11-20T15:51:11;3.17;;;2.47;;
72209;SDS011;60113;48.762;12.302;2022-11-20T15:54:13;5.18;;;2.10;;
72209;SDS011;60113;48.762;12.302;2022-11-20T15:56:40;3.97;;;2.20;;
72209;SDS011;60113;48.762;12.302;2022-11-20T15:59:06;4.53;;;2.10;;
72209;SDS011;60113;48.762;12.302;2022-11-20T16:01:32;3.30;;;1.98;;
72209;SDS011;60113;48.762;12.302;2022-11-20T16:03:59;4.82;;;3.42;;
72209;SDS011;60113;48.762;12.302;2022-11-20T16:06:25;4.20;;;2.05;;
72209;SDS011;60113;48.762;12.302;2022-11-20T16:08:51;3.35;;;2.08;;
72209;SDS011;60113;48.762;12.302;2022-11-20T16:11:17;2.70;;;1.80;;
72209;SDS011;60113;48.762;12.302;2022-11-20T16:13:43;6.07;;;3.33;;
72209;SDS011;60113;48.762;12.302;2022-11-20T16:16:31;3.80;;;2.38;;
72209;SDS011;60113;48.762;12.302;2022-11-20T16:19:00;4.80;;;1.90;;
72209;SDS011;60113;48.762;12.302;2022-11-20T16:21:26;3.33;;;2.38;;
72209;SDS011;60113;48.762;12.302;2022-11-20T16:24:02;4.03;;;1.73;;
72209;SDS011;60113;48.762;12.302;2022-11-20T16:26:29;6.35;;;1.85;;
72209;SDS011;60113;48.762;12.302;2022-11-20T16:28:55;4.03;;;2.28;;
72209;SDS011;60113;48.762;12.302;2022-11-20T16:31:21;3.25;;;2.28;;
72209;SDS011;60113;48.762;12.302;2022-11-20T16:33:55;3.85;;;2.08;;